Time;durP1;ratioP1;P1;durP2;ratioP2;P2;SDS_P1;SDS_P2;PMS_P1;PMS_P2;Temp;Humidity;BMP_temperature;BMP_pressure;BME280_temperature;BME280_humidity;BME280_pressure;Samples;Min_cycle;Max_cycle;Signal;HPM_P1;HPM_P2
2022/12/30 00:01:02;;;;;;;;;;;;;;;;;;2205410;59;1560;-71
2022/12/30 00:03:36;;;;;;;;;;;;;;;;;;2205503;59;1883;-71
2022/12/30 00:06:14;;;;;;;;;;;;;;;;;;2205273;67;1207;-71
2022/12/30 00:08:48;;;;;;;;;;;;;;;;;;2205853;67;1919;-71
2022/12/30 00:11:22;;;;;;;;;;;;;;;;;;2205598;67;1344;-72
2022/12/30 00:33:58;;;;;;;;;;;;;;;;;;2205420;59;1022;-71
2022/12/30 00:36:32;;;;;;;;;;;;;;;;;;2205778;59;1098;-72
2022/12/30 00:39:05;;;;;;;;;;;;;;;;;;2204267;59;1375;-71
2022/12/30 00:44:27;;;;;;;;;;;;;;;;;;2206125;67;1030;-72
2022/12/30 00:47:00;;;;;;;;;;;;;;;;;;2205636;67;1198;-72
2022/12/30 00:58:03;;;;;;;;;;;;;;;;;;2206338;67;1037;-71
2022/12/30 01:00:36;;;;;;;;;;;;;;;;;;2205170;59;1552;-71
2022/12/30 01:03:09;;;;;;;;;;;;;;;;;;2204126;59;1978;-72
2022/12/30 01:05:45;;;;;;;;;;;;;;;;;;2206186;59;1516;-71
2022/12/30 01:08:18;;;;;;;;;;;;;;;;;;2205264;67;1938;-72
2022/12/30 01:10:51;;;;;;;;;;;;;;;;;;2203304;67;1421;-72
2022/12/30 01:13:24;;;;;;;;;;;;;;;;;;2206126;59;1155;-72
2022/12/30 01:15:57;;;;;;;;;;;;;;;;;;2205695;67;1000;-72
2022/12/30 01:18:30;;;;;;;;;;;;;;;;;;2205503;67;1138;-72
2022/12/30 01:21:07;;;;;;;;;;;;;;;;;;2205948;67;1274;-72
2022/12/30 01:23:41;;;;;;;;;;;;;;;;;;2205986;67;1113;-71
2022/12/30 01:26:14;;;;;;;;;;;;;;;;;;2206098;67;1148;-71
2022/12/30 01:28:47;;;;;;;;;;;;;;;;;;2205757;67;1937;-72
2022/12/30 01:31:20;;;;;;;;;;;;;;;;;;2205329;59;2365;-72
2022/12/30 01:33:53;;;;;;;;;;;;;;;;;;2205381;59;1152;-71
2022/12/30 01:36:29;;;;;;;;;;;;;;;;;;2205960;67;1123;-71
2022/12/30 01:39:02;;;;;;;;;;;;;;;;;;2205194;59;1357;-71
2022/12/30 01:41:35;;;;;;;;;;;;;;;;;;2205341;67;1104;-71
2022/12/30 01:44:23;;;;;;;;;;;;;;;;;;2205905;67;1117;-71
2022/12/30 01:46:57;;;;;;;;;;;;;;;;;;2205709;67;1714;-72
2022/12/30 01:49:30;;;;;;;;;;;;;;;;;;2205949;59;1945;-72
2022/12/30 01:52:06;;;;;;;;;;;;;;;;;;2205750;67;1385;-71
2022/12/30 01:54:39;;;;;;;;;;;;;;;;;;2205675;59;1192;-72
2022/12/30 01:57:13;;;;;;;;;;;;;;;;;;2205870;67;1171;-71
2022/12/30 01:59:46;;;;;;;;;;;;;;;;;;2206383;59;1631;-71
2022/12/30 02:02:20;;;;;;;;;;;;;;;;;;2205786;59;1239;-72
2022/12/30 02:04:53;;;;;;;;;;;;;;;;;;2205555;59;1536;-71
2022/12/30 02:07:31;;;;;;;;;;;;;;;;;;2205551;67;1148;-72
2022/12/30 02:10:04;;;;;;;;;;;;;;;;;;2205961;67;1989;-71
2022/12/30 02:12:37;;;;;;;;;;;;;;;;;;2204777;67;1068;-72
2022/12/30 02:15:11;;;;;;;;;;;;;;;;;;2205969;67;1254;-72
2022/12/30 02:17:51;;;;;;;;;;;;;;;;;;2206231;67;1122;-71
2022/12/30 02:20:41;;;;;;;;;;;;;;;;;;2206031;67;1254;-72
2022/12/30 02:23:32;;;;;;;;;;;;;;;;;;2205484;59;1186;-72
2022/12/30 02:26:19;;;;;;;;;;;;;;;;;;2202830;59;1142;-72
2022/12/30 02:29:16;;;;;;;;;;;;;;;;;;2205685;67;1922;-71
2022/12/30 02:31:58;;;;;;;;;;;;;;;;;;2196291;59;1189;-72
2022/12/30 02:34:33;;;;;;;;;;;;;;;;;;2206140;67;1049;-72
2022/12/30 02:37:10;;;;;;;;;;;;;;;;;;2205491;59;1105;-72
2022/12/30 02:39:46;;;;;;;;;;;;;;;;;;2206046;59;1763;-72
2022/12/30 02:45:18;;;;;;;;;;;;;;;;;;2201697;67;1184;-72
2022/12/30 02:47:56;;;;;;;;;;;;;;;;;;2205399;67;1093;-72
2022/12/30 02:53:37;;;;;;;;;;;;;;;;;;2190081;67;1412;-72
2022/12/30 02:56:11;;;;;;;;;;;;;;;;;;2190246;67;1095;-72
2022/12/30 02:58:47;;;;;;;;;;;;;;;;;;2199174;67;1173;-72
2022/12/30 03:04:23;;;;;;;;;;;;;;;;;;2205286;59;1551;-72
2022/12/30 03:07:04;;;;;;;;;;;;;;;;;;2205992;67;1199;-72
2022/12/30 03:12:42;;;;;;;;;;;;;;;;;;2205598;67;1105;-72
2022/12/30 03:15:18;;;;;;;;;;;;;;;;;;2205713;59;1259;-72
2022/12/30 03:17:52;;;;;;;;;;;;;;;;;;2205168;67;1343;-71
2022/12/30 03:20:28;;;;;;;;;;;;;;;;;;2205884;59;1253;-72
2022/12/30 03:28:41;;;;;;;;;;;;;;;;;;2205683;67;1078;-72
2022/12/30 03:31:16;;;;;;;;;;;;;;;;;;2205198;59;1936;-72
2022/12/30 03:33:49;;;;;;;;;;;;;;;;;;2205269;67;1109;-72
2022/12/30 03:36:27;;;;;;;;;;;;;;;;;;2206225;67;1158;-72
2022/12/30 03:39:02;;;;;;;;;;;;;;;;;;2205406;59;1371;-72
2022/12/30 03:41:36;;;;;;;;;;;;;;;;;;2205540;59;1157;-72
2022/12/30 03:44:10;;;;;;;;;;;;;;;;;;2205513;67;1263;-71
2022/12/30 03:46:44;;;;;;;;;;;;;;;;;;2205761;67;1072;-72
2022/12/30 03:49:18;;;;;;;;;;;;;;;;;;2205864;67;1931;-72
2022/12/30 03:51:54;;;;;;;;;;;;;;;;;;2205148;67;1197;-71
2022/12/30 03:54:27;;;;;;;;;;;;;;;;;;2203984;67;1428;-71
2022/12/30 03:57:00;;;;;;;;;;;;;;;;;;2205570;67;1249;-71
2022/12/30 03:59:33;;;;;;;;;;;;;;;;;;2206316;59;1666;-71
2022/12/30 04:02:06;;;;;;;;;;;;;;;;;;2205480;59;1180;-72
2022/12/30 04:04:39;;;;;;;;;;;;;;;;;;2205960;59;1746;-72
2022/12/30 04:07:15;;;;;;;;;;;;;;;;;;2205835;67;1191;-71
2022/12/30 04:09:48;;;;;;;;;;;;;;;;;;2205366;67;1925;-71
2022/12/30 04:12:21;;;;;;;;;;;;;;;;;;2206060;67;1091;-71
2022/12/30 04:14:54;;;;;;;;;;;;;;;;;;2205692;59;1255;-71
2022/12/30 04:17:28;;;;;;;;;;;;;;;;;;2205762;67;1100;-73
2022/12/30 04:20:01;;;;;;;;;;;;;;;;;;2205743;67;1366;-71
2022/12/30 04:22:37;;;;;;;;;;;;;;;;;;2205665;67;1120;-71
2022/12/30 04:25:10;;;;;;;;;;;;;;;;;;2203467;67;1069;-71
2022/12/30 04:27:43;;;;;;;;;;;;;;;;;;2206371;67;1121;-71
2022/12/30 04:30:16;;;;;;;;;;;;;;;;;;2206338;67;1974;-71
2022/12/30 04:32:49;;;;;;;;;;;;;;;;;;2206016;59;1173;-71
2022/12/30 04:35:22;;;;;;;;;;;;;;;;;;2206496;67;1290;-72
2022/12/30 04:37:58;;;;;;;;;;;;;;;;;;2206173;59;1423;-71
2022/12/30 04:40:31;;;;;;;;;;;;;;;;;;2206451;67;1254;-72
2022/12/30 04:43:04;;;;;;;;;;;;;;;;;;2205888;67;1097;-72
2022/12/30 04:45:37;;;;;;;;;;;;;;;;;;2204964;67;1096;-72
2022/12/30 04:48:10;;;;;;;;;;;;;;;;;;2204970;67;1160;-72
2022/12/30 04:50:44;;;;;;;;;;;;;;;;;;2206386;67;1928;-72
2022/12/30 04:53:20;;;;;;;;;;;;;;;;;;2205960;67;1208;-72
2022/12/30 04:55:54;;;;;;;;;;;;;;;;;;2205875;59;1090;-71
2022/12/30 04:58:27;;;;;;;;;;;;;;;;;;2206292;67;1299;-72
2022/12/30 05:01:00;;;;;;;;;;;;;;;;;;2211211;53;3619;-73
2022/12/30 05:03:33;;;;;;;;;;;;;;;;;;2210501;59;1528;-73
2022/12/30 05:06:07;;;;;;;;;;;;;;;;;;2210470;67;1072;-73
2022/12/30 05:08:43;;;;;;;;;;;;;;;;;;2211220;67;1143;-73
2022/12/30 05:11:16;;;;;;;;;;;;;;;;;;2208408;59;1916;-73
2022/12/30 05:13:49;;;;;;;;;;;;;;;;;;2207406;67;1219;-73
2022/12/30 05:16:22;;;;;;;;;;;;;;;;;;2207554;67;1151;-73
2022/12/30 05:18:55;;;;;;;;;;;;;;;;;;2205767;67;1186;-73
2022/12/30 05:21:28;;;;;;;;;;;;;;;;;;2206500;67;1280;-73
2022/12/30 05:26:53;;;;;;;;;;;;;;;;;;2207341;67;1133;-73
2022/12/30 05:29:27;;;;;;;;;;;;;;;;;;2205247;59;1394;-73
2022/12/30 05:32:00;;;;;;;;;;;;;;;;;;2206944;59;1928;-73
2022/12/30 05:34:33;;;;;;;;;;;;;;;;;;2203901;67;1538;-73
2022/12/30 05:37:06;;;;;;;;;;;;;;;;;;2207495;67;1140;-73
2022/12/30 05:39:42;;;;;;;;;;;;;;;;;;2206086;59;1605;-73
2022/12/30 05:42:15;;;;;;;;;;;;;;;;;;2207383;67;1036;-73
2022/12/30 05:44:48;;;;;;;;;;;;;;;;;;2207140;67;1062;-73
2022/12/30 05:47:21;;;;;;;;;;;;;;;;;;2206683;67;1276;-73
2022/12/30 05:49:54;;;;;;;;;;;;;;;;;;2206727;67;1938;-73
2022/12/30 05:52:29;;;;;;;;;;;;;;;;;;2206434;67;1077;-73
2022/12/30 05:55:05;;;;;;;;;;;;;;;;;;2207036;59;1124;-73
2022/12/30 05:57:38;;;;;;;;;;;;;;;;;;2205242;67;1145;-73
2022/12/30 06:00:11;;;;;;;;;;;;;;;;;;2206090;59;1661;-73
2022/12/30 06:02:45;;;;;;;;;;;;;;;;;;2206045;59;1410;-73
2022/12/30 06:05:18;;;;;;;;;;;;;;;;;;2207645;59;1454;-73
2022/12/30 06:07:51;;;;;;;;;;;;;;;;;;2207111;67;1250;-73
2022/12/30 06:10:27;;;;;;;;;;;;;;;;;;2205720;67;1945;-73
2022/12/30 06:13:00;;;;;;;;;;;;;;;;;;2207500;67;1125;-73
2022/12/30 06:15:33;;;;;;;;;;;;;;;;;;2205031;59;1099;-73
2022/12/30 06:18:06;;;;;;;;;;;;;;;;;;2207210;67;1075;-72
2022/12/30 06:20:39;;;;;;;;;;;;;;;;;;2206356;67;1227;-73
2022/12/30 06:23:12;;;;;;;;;;;;;;;;;;2205790;67;1208;-73
2022/12/30 06:25:52;;;;;;;;;;;;;;;;;;2207446;59;1230;-73
2022/12/30 06:28:26;;;;;;;;;;;;;;;;;;2206583;67;1170;-73
2022/12/30 06:30:59;;;;;;;;;;;;;;;;;;2205137;59;1929;-73
2022/12/30 06:33:32;;;;;;;;;;;;;;;;;;2205803;67;1780;-73
2022/12/30 06:36:06;;;;;;;;;;;;;;;;;;2207251;67;1083;-73
2022/12/30 06:38:39;;;;;;;;;;;;;;;;;;2205342;59;1253;-73
2022/12/30 06:41:15;;;;;;;;;;;;;;;;;;2206166;67;1251;-73
2022/12/30 06:43:48;;;;;;;;;;;;;;;;;;2205992;67;1130;-73
2022/12/30 06:46:21;;;;;;;;;;;;;;;;;;2205320;67;1078;-73
2022/12/30 06:48:54;;;;;;;;;;;;;;;;;;2206447;67;1431;-73
2022/12/30 06:51:28;;;;;;;;;;;;;;;;;;2206498;59;1984;-73
2022/12/30 06:54:01;;;;;;;;;;;;;;;;;;2206514;67;1143;-73
2022/12/30 06:56:37;;;;;;;;;;;;;;;;;;2206667;67;1077;-73
2022/12/30 06:59:10;;;;;;;;;;;;;;;;;;2207765;59;1684;-73
2022/12/30 07:01:43;;;;;;;;;;;;;;;;;;2207245;59;1212;-73
2022/12/30 07:04:16;;;;;;;;;;;;;;;;;;2205982;59;1555;-73
2022/12/30 07:06:49;;;;;;;;;;;;;;;;;;2205574;67;1170;-72
2022/12/30 07:09:23;;;;;;;;;;;;;;;;;;2205653;59;2133;-73
2022/12/30 07:11:59;;;;;;;;;;;;;;;;;;2206834;67;1987;-72
2022/12/30 07:14:32;;;;;;;;;;;;;;;;;;2206837;59;1943;-72
2022/12/30 07:17:05;;;;;;;;;;;;;;;;;;2207107;59;1121;-73
2022/12/30 07:19:38;;;;;;;;;;;;;;;;;;2206514;59;2372;-73
2022/12/30 07:22:11;;;;;;;;;;;;;;;;;;2205810;67;1074;-72
2022/12/30 07:24:45;;;;;;;;;;;;;;;;;;2205343;59;1960;-73
2022/12/30 07:27:21;;;;;;;;;;;;;;;;;;2206403;59;1123;-73
2022/12/30 07:29:54;;;;;;;;;;;;;;;;;;2205640;59;2003;-73
2022/12/30 07:32:28;;;;;;;;;;;;;;;;;;2205637;59;1945;-72
2022/12/30 07:35:02;;;;;;;;;;;;;;;;;;2204376;59;2073;-73
2022/12/30 07:37:35;;;;;;;;;;;;;;;;;;2206684;59;1313;-73
2022/12/30 07:40:09;;;;;;;;;;;;;;;;;;2205359;59;1931;-73
2022/12/30 07:42:45;;;;;;;;;;;;;;;;;;2206920;67;1090;-73
2022/12/30 07:45:18;;;;;;;;;;;;;;;;;;2205293;59;2093;-73
2022/12/30 07:47:51;;;;;;;;;;;;;;;;;;2201297;59;2429;-73
2022/12/30 07:50:25;;;;;;;;;;;;;;;;;;2206487;67;1233;-73
2022/12/30 07:52:58;;;;;;;;;;;;;;;;;;2204037;59;2283;-73
2022/12/30 07:55:31;;;;;;;;;;;;;;;;;;2206498;67;1111;-73
2022/12/30 07:58:07;;;;;;;;;;;;;;;;;;2208290;59;1939;-73
2022/12/30 08:00:40;;;;;;;;;;;;;;;;;;2204133;59;1980;-73
2022/12/30 08:03:13;;;;;;;;;;;;;;;;;;2207127;59;2171;-73
2022/12/30 08:05:46;;;;;;;;;;;;;;;;;;2207472;59;1555;-73
2022/12/30 08:08:19;;;;;;;;;;;;;;;;;;2204396;59;2172;-73
2022/12/30 08:10:56;;;;;;;;;;;;;;;;;;2206708;59;1987;-73
2022/12/30 08:13:32;;;;;;;;;;;;;;;;;;2204801;59;2238;-73
2022/12/30 08:16:06;;;;;;;;;;;;;;;;;;2204437;67;1127;-73
2022/12/30 08:18:40;;;;;;;;;;;;;;;;;;2204292;59;2211;-73
2022/12/30 08:21:14;;;;;;;;;;;;;;;;;;2206192;67;1207;-73
2022/12/30 08:23:48;;;;;;;;;;;;;;;;;;2204406;59;2142;-73
2022/12/30 08:26:22;;;;;;;;;;;;;;;;;;2206506;67;1200;-73
2022/12/30 08:28:58;;;;;;;;;;;;;;;;;;2204872;59;1991;-73
2022/12/30 08:31:32;;;;;;;;;;;;;;;;;;2204349;59;2012;-73
2022/12/30 08:34:05;;;;;;;;;;;;;;;;;;2206135;59;1989;-73
2022/12/30 08:36:38;;;;;;;;;;;;;;;;;;2205985;67;1144;-73
2022/12/30 08:39:11;;;;;;;;;;;;;;;;;;2205970;59;1864;-73
2022/12/30 08:41:46;;;;;;;;;;;;;;;;;;2207047;67;1352;-73
2022/12/30 08:44:21;;;;;;;;;;;;;;;;;;2205598;59;2089;-73
2022/12/30 08:46:55;;;;;;;;;;;;;;;;;;2207233;67;2318;-73
2022/12/30 08:49:28;;;;;;;;;;;;;;;;;;2204701;59;2303;-73
2022/12/30 08:52:01;;;;;;;;;;;;;;;;;;2206512;59;1962;-73
2022/12/30 08:54:34;;;;;;;;;;;;;;;;;;2204761;59;2179;-72
2022/12/30 08:57:11;;;;;;;;;;;;;;;;;;2204587;59;2248;-73
2022/12/30 08:59:47;;;;;;;;;;;;;;;;;;2204828;59;2229;-73
2022/12/30 09:02:20;;;;;;;;;;;;;;;;;;2203732;59;2143;-73
2022/12/30 09:04:53;;;;;;;;;;;;;;;;;;2205901;59;2390;-73
2022/12/30 09:07:27;;;;;;;;;;;;;;;;;;2206603;59;2245;-72
2022/12/30 09:10:00;;;;;;;;;;;;;;;;;;2206971;59;1931;-73
2022/12/30 09:12:33;;;;;;;;;;;;;;;;;;2205195;59;2017;-73
2022/12/30 09:15:10;;;;;;;;;;;;;;;;;;2205044;59;1153;-73
2022/12/30 09:17:43;;;;;;;;;;;;;;;;;;2206708;59;1966;-73
2022/12/30 09:20:16;;;;;;;;;;;;;;;;;;2207675;67;1231;-73
2022/12/30 09:22:49;;;;;;;;;;;;;;;;;;2207661;59;2041;-73
2022/12/30 09:25:22;;;;;;;;;;;;;;;;;;2207862;67;1140;-73
2022/12/30 09:27:55;;;;;;;;;;;;;;;;;;2205550;59;2061;-72
2022/12/30 09:30:31;;;;;;;;;;;;;;;;;;2207785;59;1208;-73
2022/12/30 09:33:04;;;;;;;;;;;;;;;;;;2206196;59;2079;-72
2022/12/30 09:35:37;;;;;;;;;;;;;;;;;;2206335;59;2109;-72
2022/12/30 09:38:10;;;;;;;;;;;;;;;;;;2206908;59;2069;-73
2022/12/30 09:40:48;;;;;;;;;;;;;;;;;;2206057;59;1247;-73
2022/12/30 09:43:25;;;;;;;;;;;;;;;;;;2203686;59;2157;-73
2022/12/30 09:46:11;;;;;;;;;;;;;;;;;;2204670;59;12694;-72
2022/12/30 09:48:45;;;;;;;;;;;;;;;;;;2200567;59;14243;-72
2022/12/30 09:51:20;;;;;;;;;;;;;;;;;;2204321;59;12193;-72
2022/12/30 09:53:55;;;;;;;;;;;;;;;;;;2201831;59;19317;-72
2022/12/30 09:56:30;;;;;;;;;;;;;;;;;;2202731;59;33470;-72
2022/12/30 09:59:06;;;;;;;;;;;;;;;;;;2203336;59;12864;-72
2022/12/30 10:01:44;;;;;;;;;;;;;;;;;;2204121;59;12754;-72
2022/12/30 10:04:18;;;;;;;;;;;;;;;;;;2203969;59;14119;-72
2022/12/30 10:07:02;;;;;;;;;;;;;;;;;;2203040;59;16843;-72
2022/12/30 10:09:40;;;;;;;;;;;;;;;;;;2202921;67;13350;-72
2022/12/30 10:12:24;;;;;;;;;;;;;;;;;;2202413;59;12920;-73
2022/12/30 10:15:01;;;;;;;;;;;;;;;;;;2205411;67;13564;-72
2022/12/30 10:17:48;;;;;;;;;;;;;;;;;;2203243;59;14056;-72
2022/12/30 10:20:33;;;;;;;;;;;;;;;;;;2204721;67;12911;-72
2022/12/30 10:23:11;;;;;;;;;;;;;;;;;;2203595;59;18739;-73
2022/12/30 10:25:47;;;;;;;;;;;;;;;;;;2204412;64;19732;-73
2022/12/30 10:28:23;;;;;;;;;;;;;;;;;;2203356;59;11812;-73
2022/12/30 10:30:57;;;;;;;;;;;;;;;;;;2203327;59;12858;-73
2022/12/30 10:33:34;;;;;;;;;;;;;;;;;;2202822;59;12485;-73
2022/12/30 10:36:14;;;;;;;;;;;;;;;;;;2204228;59;12713;-73
2022/12/30 10:38:48;;;;;;;;;;;;;;;;;;2202456;59;16083;-73
2022/12/30 10:41:29;;;;;;;;;;;;;;;;;;2203716;59;12321;-73
2022/12/30 10:44:07;;;;;;;;;;;;;;;;;;2202247;59;43590;-73
2022/12/30 10:46:48;;;;;;;;;;;;;;;;;;2203803;59;12385;-73
2022/12/30 10:49:48;;;;;;;;;;;;;;;;;;2202397;59;13055;-73
2022/12/30 10:52:22;;;;;;;;;;;;;;;;;;2200272;59;13378;-73
2022/12/30 10:54:55;;;;;;;;;;;;;;;;;;2201542;59;17401;-73
2022/12/30 10:57:30;;;;;;;;;;;;;;;;;;2200557;59;12713;-73
2022/12/30 11:00:05;;;;;;;;;;;;;;;;;;2200700;53;12784;-72
2022/12/30 11:02:39;;;;;;;;;;;;;;;;;;2196333;59;11430;-72
2022/12/30 11:08:22;;;;;;;;;;;;;;;;;;2212511;58;15773;-71
2022/12/30 11:11:02;;;;;;;;;;;;;;;;;;2210094;58;13370;-71
2022/12/30 11:16:26;;;;;;;;;;;;;;;;;;2208808;59;14865;-71
2022/12/30 11:19:00;;;;;;;;;;;;;;;;;;2208529;59;12262;-71
2022/12/30 11:21:34;;;;;;;;;;;;;;;;;;2208905;58;14737;-70
2022/12/30 11:24:16;;;;;;;;;;;;;;;;;;2208373;59;15604;-70
2022/12/30 11:26:51;;;;;;;;;;;;;;;;;;2209944;63;16265;-70
2022/12/30 11:29:24;;;;;;;;;;;;;;;;;;2208665;58;23973;-71
2022/12/30 11:31:58;;;;;;;;;;;;;;;;;;2209819;58;12547;-71
2022/12/30 11:34:32;;;;;;;;;;;;;;;;;;2210099;58;16370;-70
2022/12/30 11:37:23;;;;;;;;;;;;;;;;;;2208230;59;24505;-71
2022/12/30 11:39:59;;;;;;;;;;;;;;;;;;2209884;58;19127;-70
2022/12/30 11:42:33;;;;;;;;;;;;;;;;;;2209583;59;18040;-70
2022/12/30 11:45:18;;;;;;;;;;;;;;;;;;2209749;59;12527;-70
2022/12/30 11:47:51;;;;;;;;;;;;;;;;;;2208525;59;13939;-70
2022/12/30 11:50:24;;;;;;;;;;;;;;;;;;2208261;59;21275;-70
2022/12/30 11:53:01;;;;;;;;;;;;;;;;;;2208239;59;24090;-71
2022/12/30 11:55:37;;;;;;;;;;;;;;;;;;2208502;58;19402;-71
2022/12/30 11:58:13;;;;;;;;;;;;;;;;;;2208124;59;11711;-71
2022/12/30 12:00:47;;;;;;;;;;;;;;;;;;2208344;58;12393;-71
2022/12/30 12:03:20;;;;;;;;;;;;;;;;;;2209651;59;12476;-71
2022/12/30 12:06:04;;;;;;;;;;;;;;;;;;2209514;58;15462;-71
2022/12/30 12:08:40;;;;;;;;;;;;;;;;;;2209315;59;15039;-71
2022/12/30 12:11:18;;;;;;;;;;;;;;;;;;2208546;58;22231;-70
2022/12/30 12:13:55;;;;;;;;;;;;;;;;;;2208967;59;13894;-71
2022/12/30 12:16:34;;;;;;;;;;;;;;;;;;2208169;59;22643;-70
2022/12/30 12:19:18;;;;;;;;;;;;;;;;;;2206471;59;24598;-71
2022/12/30 12:21:52;;;;;;;;;;;;;;;;;;2204220;59;13793;-70
2022/12/30 12:24:28;;;;;;;;;;;;;;;;;;2205676;59;22549;-71
2022/12/30 12:27:08;;;;;;;;;;;;;;;;;;2204902;64;12196;-70
2022/12/30 12:29:42;;;;;;;;;;;;;;;;;;2204857;59;12132;-70
2022/12/30 12:32:24;;;;;;;;;;;;;;;;;;2204877;59;17527;-71
2022/12/30 12:35:04;;;;;;;;;;;;;;;;;;2204152;59;12599;-71
2022/12/30 12:37:42;;;;;;;;;;;;;;;;;;2204449;59;17030;-71
2022/12/30 12:40:32;;;;;;;;;;;;;;;;;;2204709;59;12469;-71
2022/12/30 12:43:14;;;;;;;;;;;;;;;;;;2204419;59;12321;-71
2022/12/30 12:45:53;;;;;;;;;;;;;;;;;;2204459;59;18026;-71
2022/12/30 12:48:35;;;;;;;;;;;;;;;;;;2205152;59;23209;-71
2022/12/30 12:51:19;;;;;;;;;;;;;;;;;;2204544;59;13971;-70
2022/12/30 12:54:07;;;;;;;;;;;;;;;;;;2204265;59;13032;-71
2022/12/30 12:56:52;;;;;;;;;;;;;;;;;;2203446;59;19032;-71
2022/12/30 12:59:37;;;;;;;;;;;;;;;;;;2204403;59;19660;-71
2022/12/30 13:02:19;;;;;;;;;;;;;;;;;;2204220;59;14275;-71
2022/12/30 13:04:56;;;;;;;;;;;;;;;;;;2204694;59;13067;-71
2022/12/30 13:07:42;;;;;;;;;;;;;;;;;;2204559;59;17437;-72
2022/12/30 13:10:24;;;;;;;;;;;;;;;;;;2207144;66;13102;-71
2022/12/30 13:13:02;;;;;;;;;;;;;;;;;;2204728;59;14785;-70
2022/12/30 13:15:42;;;;;;;;;;;;;;;;;;2205638;59;13942;-70
2022/12/30 13:18:18;;;;;;;;;;;;;;;;;;2205636;59;13429;-71
2022/12/30 13:20:53;;;;;;;;;;;;;;;;;;2204338;59;12447;-71
2022/12/30 13:23:29;;;;;;;;;;;;;;;;;;2205425;59;12847;-71
2022/12/30 13:26:02;;;;;;;;;;;;;;;;;;2204825;59;14300;-71
2022/12/30 13:28:37;;;;;;;;;;;;;;;;;;2203363;59;22358;-71
2022/12/30 13:31:23;;;;;;;;;;;;;;;;;;2206246;59;13349;-71
2022/12/30 13:34:04;;;;;;;;;;;;;;;;;;2204369;59;15492;-71
2022/12/30 13:36:41;;;;;;;;;;;;;;;;;;2205794;59;12854;-70
2022/12/30 13:39:19;;;;;;;;;;;;;;;;;;2206150;59;19063;-70
2022/12/30 13:42:02;;;;;;;;;;;;;;;;;;2205264;59;18056;-70
2022/12/30 13:44:36;;;;;;;;;;;;;;;;;;2205014;59;16358;-70
2022/12/30 13:47:25;;;;;;;;;;;;;;;;;;2205029;59;12274;-71
2022/12/30 13:49:59;;;;;;;;;;;;;;;;;;2204523;59;12752;-70
2022/12/30 13:52:33;;;;;;;;;;;;;;;;;;2204676;59;12362;-70
2022/12/30 13:55:06;;;;;;;;;;;;;;;;;;2206130;59;11748;-71
2022/12/30 13:57:41;;;;;;;;;;;;;;;;;;2204428;59;14719;-71
2022/12/30 14:00:28;;;;;;;;;;;;;;;;;;2204076;59;12368;-70
2022/12/30 14:03:06;;;;;;;;;;;;;;;;;;2203250;59;13352;-70
2022/12/30 14:05:59;;;;;;;;;;;;;;;;;;2204839;59;13939;-70
2022/12/30 14:08:47;;;;;;;;;;;;;;;;;;2203174;59;12503;-71
2022/12/30 14:11:21;;;;;;;;;;;;;;;;;;2206263;66;26638;-71
2022/12/30 14:14:13;;;;;;;;;;;;;;;;;;2204298;59;18938;-70
2022/12/30 14:16:47;;;;;;;;;;;;;;;;;;2204767;59;12601;-70
2022/12/30 14:19:32;;;;;;;;;;;;;;;;;;2206485;59;12621;-71
2022/12/30 14:22:05;;;;;;;;;;;;;;;;;;2203968;59;20936;-71
2022/12/30 14:24:49;;;;;;;;;;;;;;;;;;2205512;59;12441;-71
2022/12/30 14:27:33;;;;;;;;;;;;;;;;;;2205175;59;13215;-70
2022/12/30 14:30:07;;;;;;;;;;;;;;;;;;2205419;59;19649;-71
2022/12/30 14:32:40;;;;;;;;;;;;;;;;;;2204127;59;17127;-70
2022/12/30 14:35:19;;;;;;;;;;;;;;;;;;2205729;59;13623;-71
2022/12/30 14:37:52;;;;;;;;;;;;;;;;;;2204313;59;12990;-70
2022/12/30 14:40:32;;;;;;;;;;;;;;;;;;2205408;58;13042;-70
2022/12/30 14:43:06;;;;;;;;;;;;;;;;;;2205555;59;14692;-71
2022/12/30 14:45:40;;;;;;;;;;;;;;;;;;2205659;58;24893;-71
2022/12/30 14:48:13;;;;;;;;;;;;;;;;;;2206168;59;12998;-70
2022/12/30 14:50:49;;;;;;;;;;;;;;;;;;2206587;59;14154;-70
2022/12/30 14:53:22;;;;;;;;;;;;;;;;;;2206186;59;12318;-70
2022/12/30 14:55:55;;;;;;;;;;;;;;;;;;2205310;59;12577;-70
2022/12/30 14:58:29;;;;;;;;;;;;;;;;;;2205090;59;21255;-70
2022/12/30 15:01:12;;;;;;;;;;;;;;;;;;2204876;59;13469;-71
2022/12/30 15:03:45;;;;;;;;;;;;;;;;;;2204953;59;18678;-70
2022/12/30 15:06:21;;;;;;;;;;;;;;;;;;2205746;59;18913;-70
2022/12/30 15:08:55;;;;;;;;;;;;;;;;;;2204594;63;12683;-70
2022/12/30 15:11:28;;;;;;;;;;;;;;;;;;2205376;63;15003;-70
2022/12/30 15:14:01;;;;;;;;;;;;;;;;;;2201871;59;13591;-70
2022/12/30 15:16:35;;;;;;;;;;;;;;;;;;2205741;59;14137;-70
2022/12/30 15:19:22;;;;;;;;;;;;;;;;;;2204548;59;16560;-69
2022/12/30 15:21:58;;;;;;;;;;;;;;;;;;2204460;63;16142;-70
2022/12/30 15:24:31;;;;;;;;;;;;;;;;;;2204419;66;18151;-70
2022/12/30 15:27:05;;;;;;;;;;;;;;;;;;2205571;66;14693;-70
2022/12/30 15:29:38;;;;;;;;;;;;;;;;;;2204647;59;13960;-70
2022/12/30 15:32:31;;;;;;;;;;;;;;;;;;2203652;58;13089;-70
2022/12/30 15:35:08;;;;;;;;;;;;;;;;;;2204264;59;21013;-70
2022/12/30 15:37:46;;;;;;;;;;;;;;;;;;2203801;59;14745;-70
2022/12/30 15:40:21;;;;;;;;;;;;;;;;;;2203239;59;12737;-70
2022/12/30 15:42:55;;;;;;;;;;;;;;;;;;2203344;58;18792;-70
2022/12/30 15:45:32;;;;;;;;;;;;;;;;;;2203998;59;13483;-70
2022/12/30 15:48:20;;;;;;;;;;;;;;;;;;2204376;67;15326;-70
2022/12/30 15:50:55;;;;;;;;;;;;;;;;;;2203931;63;11870;-71
2022/12/30 15:53:32;;;;;;;;;;;;;;;;;;2204061;59;15768;-70
2022/12/30 15:56:06;;;;;;;;;;;;;;;;;;2205057;59;20013;-70
2022/12/30 15:58:41;;;;;;;;;;;;;;;;;;2204690;59;14172;-70
2022/12/30 16:01:16;;;;;;;;;;;;;;;;;;2203787;59;30821;-70
2022/12/30 16:03:54;;;;;;;;;;;;;;;;;;2204043;58;19092;-70
2022/12/30 16:06:27;;;;;;;;;;;;;;;;;;2206780;59;13460;-70
2022/12/30 16:09:03;;;;;;;;;;;;;;;;;;2206224;59;18795;-70
2022/12/30 16:11:38;;;;;;;;;;;;;;;;;;2206186;59;13257;-70
2022/12/30 16:14:29;;;;;;;;;;;;;;;;;;2205091;59;13260;-70
2022/12/30 16:17:15;;;;;;;;;;;;;;;;;;2205638;59;12097;-70
2022/12/30 16:19:48;;;;;;;;;;;;;;;;;;2204555;58;29338;-70
2022/12/30 16:22:23;;;;;;;;;;;;;;;;;;2202648;59;17708;-70
2022/12/30 16:25:01;;;;;;;;;;;;;;;;;;2202272;59;22410;-70
2022/12/30 16:27:38;;;;;;;;;;;;;;;;;;2202253;59;18316;-70
2022/12/30 16:30:17;;;;;;;;;;;;;;;;;;2205578;66;11751;-70
2022/12/30 16:32:51;;;;;;;;;;;;;;;;;;2205217;59;20298;-70
2022/12/30 16:35:24;;;;;;;;;;;;;;;;;;2206254;63;17380;-70
2022/12/30 16:37:57;;;;;;;;;;;;;;;;;;2205267;59;23557;-70
2022/12/30 16:40:36;;;;;;;;;;;;;;;;;;2206567;59;12057;-70
2022/12/30 16:43:10;;;;;;;;;;;;;;;;;;2204338;59;22981;-70
2022/12/30 16:45:43;;;;;;;;;;;;;;;;;;2204971;63;12755;-71
2022/12/30 16:48:16;;;;;;;;;;;;;;;;;;2205534;58;12596;-70
2022/12/30 16:50:49;;;;;;;;;;;;;;;;;;2204070;58;18805;-70
2022/12/30 16:53:25;;;;;;;;;;;;;;;;;;2204922;59;21888;-70
2022/12/30 16:56:00;;;;;;;;;;;;;;;;;;2200842;59;12465;-71
2022/12/30 16:58:33;;;;;;;;;;;;;;;;;;2205823;59;12435;-71
2022/12/30 17:01:07;;;;;;;;;;;;;;;;;;2205245;59;12320;-70
2022/12/30 17:03:41;;;;;;;;;;;;;;;;;;2205083;59;12466;-71
2022/12/30 17:19:33;;;;;;;;;;;;;;;;;;2202726;59;1699;-72
2022/12/30 17:22:08;;;;;;;;;;;;;;;;;;2203388;59;2034;-72
2022/12/30 17:24:41;;;;;;;;;;;;;;;;;;2205842;67;991;-72
2022/12/30 17:27:18;;;;;;;;;;;;;;;;;;2204716;59;2069;-72
2022/12/30 17:29:51;;;;;;;;;;;;;;;;;;2201449;67;2137;-72
2022/12/30 17:32:26;;;;;;;;;;;;;;;;;;2205565;59;1926;-72
2022/12/30 17:35:02;;;;;;;;;;;;;;;;;;2206173;67;1215;-72
2022/12/30 17:37:35;;;;;;;;;;;;;;;;;;2204992;59;2286;-72
2022/12/30 17:40:09;;;;;;;;;;;;;;;;;;2205419;59;1995;-72
2022/12/30 17:42:42;;;;;;;;;;;;;;;;;;2201494;59;1979;-72
2022/12/30 17:45:17;;;;;;;;;;;;;;;;;;2205888;67;1250;-72
2022/12/30 17:47:51;;;;;;;;;;;;;;;;;;2204959;59;2203;-72
2022/12/30 17:50:27;;;;;;;;;;;;;;;;;;2205787;67;1098;-72
2022/12/30 17:53:00;;;;;;;;;;;;;;;;;;2203727;59;2267;-73
2022/12/30 17:55:33;;;;;;;;;;;;;;;;;;2205303;59;2063;-73
2022/12/30 17:58:06;;;;;;;;;;;;;;;;;;2205519;59;2118;-72
2022/12/30 18:00:40;;;;;;;;;;;;;;;;;;2205112;59;2190;-72
2022/12/30 18:03:14;;;;;;;;;;;;;;;;;;2204680;59;2021;-72
2022/12/30 18:05:51;;;;;;;;;;;;;;;;;;2205848;59;1553;-72
2022/12/30 18:08:25;;;;;;;;;;;;;;;;;;2204612;59;2095;-72
2022/12/30 18:11:00;;;;;;;;;;;;;;;;;;2205551;59;2342;-73
2022/12/30 18:13:34;;;;;;;;;;;;;;;;;;2204270;59;2164;-72
2022/12/30 18:16:08;;;;;;;;;;;;;;;;;;2204659;59;2326;-72
2022/12/30 18:18:41;;;;;;;;;;;;;;;;;;2205055;59;1999;-72
2022/12/30 18:21:19;;;;;;;;;;;;;;;;;;2204862;67;1078;-72
2022/12/30 18:23:52;;;;;;;;;;;;;;;;;;2204338;59;1975;-72
2022/12/30 18:26:27;;;;;;;;;;;;;;;;;;2204180;59;2018;-73
2022/12/30 18:29:00;;;;;;;;;;;;;;;;;;2205015;59;1918;-73
2022/12/30 18:31:33;;;;;;;;;;;;;;;;;;2204191;59;1960;-72
2022/12/30 18:34:07;;;;;;;;;;;;;;;;;;2204659;59;2036;-73
2022/12/30 18:36:43;;;;;;;;;;;;;;;;;;2204819;59;1304;-72
2022/12/30 18:39:16;;;;;;;;;;;;;;;;;;2204412;59;2003;-72
2022/12/30 18:41:49;;;;;;;;;;;;;;;;;;2204369;59;2278;-72
2022/12/30 18:44:22;;;;;;;;;;;;;;;;;;2204685;59;2005;-72
2022/12/30 18:46:55;;;;;;;;;;;;;;;;;;2205243;67;1257;-72
2022/12/30 18:49:28;;;;;;;;;;;;;;;;;;2204474;59;1993;-72
2022/12/30 18:52:04;;;;;;;;;;;;;;;;;;2204771;59;2015;-72
2022/12/30 18:54:37;;;;;;;;;;;;;;;;;;2204288;59;2385;-72
2022/12/30 18:57:10;;;;;;;;;;;;;;;;;;2205043;59;2077;-72
2022/12/30 18:59:44;;;;;;;;;;;;;;;;;;2204367;59;2258;-72
2022/12/30 19:02:17;;;;;;;;;;;;;;;;;;2204948;59;1260;-73
2022/12/30 19:04:50;;;;;;;;;;;;;;;;;;2204324;59;1927;-72